sensor_id;sensor_type;location;lat;lon;timestamp;P1;durP1;ratioP1;P2;durP2;ratioP2
22064;SDS011;11197;53.110;8.468;2023-03-03T00:01:05;56.90;;;22.67;;
22064;SDS011;11197;53.110;8.468;2023-03-03T00:03:31;56.13;;;21.27;;
22064;SDS011;11197;53.110;8.468;2023-03-03T00:05:57;63.83;;;23.98;;
22064;SDS011;11197;53.110;8.468;2023-03-03T00:08:24;55.53;;;22.08;;
22064;SDS011;11197;53.110;8.468;2023-03-03T00:10:50;60.50;;;22.77;;
22064;SDS011;11197;53.110;8.468;2023-03-03T00:13:26;68.18;;;24.02;;
22064;SDS011;11197;53.110;8.468;2023-03-03T00:15:52;58.75;;;22.95;;
22064;SDS011;11197;53.110;8.468;2023-03-03T00:20:58;50.00;;;21.33;;
22064;SDS011;11197;53.110;8.468;2023-03-03T00:23:35;53.90;;;22.88;;
22064;SDS011;11197;53.110;8.468;2023-03-03T00:26:14;49.20;;;20.95;;
22064;SDS011;11197;53.110;8.468;2023-03-03T00:28:45;46.50;;;20.25;;
22064;SDS011;11197;53.110;8.468;2023-03-03T00:31:16;44.15;;;19.92;;
22064;SDS011;11197;53.110;8.468;2023-03-03T00:36:42;41.15;;;19.20;;
22064;SDS011;11197;53.110;8.468;2023-03-03T00:41:51;42.35;;;19.15;;
22064;SDS011;11197;53.110;8.468;2023-03-03T00:52:50;43.47;;;19.85;;
22064;SDS011;11197;53.110;8.468;2023-03-03T00:55:38;44.45;;;19.67;;
22064;SDS011;11197;53.110;8.468;2023-03-03T00:58:05;56.10;;;25.25;;
22064;SDS011;11197;53.110;8.468;2023-03-03T01:00:35;47.40;;;23.42;;
22064;SDS011;11197;53.110;8.468;2023-03-03T01:03:05;54.85;;;24.25;;
22064;SDS011;11197;53.110;8.468;2023-03-03T01:05:33;54.30;;;23.55;;
22064;SDS011;11197;53.110;8.468;2023-03-03T01:07:59;54.88;;;23.48;;
22064;SDS011;11197;53.110;8.468;2023-03-03T01:10:26;57.92;;;24.10;;
22064;SDS011;11197;53.110;8.468;2023-03-03T01:12:54;60.50;;;25.08;;
22064;SDS011;11197;53.110;8.468;2023-03-03T01:15:21;62.83;;;24.27;;
22064;SDS011;11197;53.110;8.468;2023-03-03T01:17:48;59.13;;;24.10;;
22064;SDS011;11197;53.110;8.468;2023-03-03T01:20:14;60.80;;;25.27;;
22064;SDS011;11197;53.110;8.468;2023-03-03T01:22:40;64.45;;;24.13;;
22064;SDS011;11197;53.110;8.468;2023-03-03T01:25:09;56.17;;;23.27;;
22064;SDS011;11197;53.110;8.468;2023-03-03T01:27:39;59.90;;;23.33;;
22064;SDS011;11197;53.110;8.468;2023-03-03T01:30:05;63.28;;;25.05;;
22064;SDS011;11197;53.110;8.468;2023-03-03T01:32:32;75.40;;;27.77;;
22064;SDS011;11197;53.110;8.468;2023-03-03T01:34:58;77.25;;;28.80;;
22064;SDS011;11197;53.110;8.468;2023-03-03T01:37:24;77.40;;;27.63;;
22064;SDS011;11197;53.110;8.468;2023-03-03T01:39:51;68.25;;;26.42;;
22064;SDS011;11197;53.110;8.468;2023-03-03T01:42:18;73.70;;;27.25;;
22064;SDS011;11197;53.110;8.468;2023-03-03T01:44:46;74.22;;;26.65;;
22064;SDS011;11197;53.110;8.468;2023-03-03T01:47:21;76.03;;;29.08;;
22064;SDS011;11197;53.110;8.468;2023-03-03T01:49:55;70.25;;;27.48;;
22064;SDS011;11197;53.110;8.468;2023-03-03T01:52:25;69.40;;;26.47;;
22064;SDS011;11197;53.110;8.468;2023-03-03T01:54:54;76.70;;;27.40;;
22064;SDS011;11197;53.110;8.468;2023-03-03T01:57:28;65.22;;;25.00;;
22064;SDS011;11197;53.110;8.468;2023-03-03T02:00:02;61.50;;;25.83;;
22064;SDS011;11197;53.110;8.468;2023-03-03T02:02:38;56.20;;;23.90;;
22064;SDS011;11197;53.110;8.468;2023-03-03T02:05:06;59.60;;;24.45;;
22064;SDS011;11197;53.110;8.468;2023-03-03T02:07:32;59.65;;;24.63;;
22064;SDS011;11197;53.110;8.468;2023-03-03T02:10:10;60.30;;;24.88;;
22064;SDS011;11197;53.110;8.468;2023-03-03T02:12:42;61.53;;;25.88;;
22064;SDS011;11197;53.110;8.468;2023-03-03T02:15:30;55.88;;;24.67;;
22064;SDS011;11197;53.110;8.468;2023-03-03T02:20:31;60.10;;;24.67;;
22064;SDS011;11197;53.110;8.468;2023-03-03T02:28:25;63.15;;;26.77;;
22064;SDS011;11197;53.110;8.468;2023-03-03T02:30:54;59.60;;;26.05;;
22064;SDS011;11197;53.110;8.468;2023-03-03T02:33:22;58.30;;;25.27;;
22064;SDS011;11197;53.110;8.468;2023-03-03T02:35:48;56.42;;;24.88;;
22064;SDS011;11197;53.110;8.468;2023-03-03T02:40:46;63.35;;;27.92;;
22064;SDS011;11197;53.110;8.468;2023-03-03T02:43:20;65.93;;;28.48;;
22064;SDS011;11197;53.110;8.468;2023-03-03T02:45:49;64.43;;;27.70;;
22064;SDS011;11197;53.110;8.468;2023-03-03T02:48:15;60.50;;;26.95;;
22064;SDS011;11197;53.110;8.468;2023-03-03T02:50:43;61.90;;;27.58;;
22064;SDS011;11197;53.110;8.468;2023-03-03T02:53:08;61.22;;;28.20;;
22064;SDS011;11197;53.110;8.468;2023-03-03T02:55:34;67.03;;;27.58;;
22064;SDS011;11197;53.110;8.468;2023-03-03T02:58:00;63.75;;;28.45;;
22064;SDS011;11197;53.110;8.468;2023-03-03T03:00:26;59.70;;;26.45;;
22064;SDS011;11197;53.110;8.468;2023-03-03T03:02:52;61.50;;;26.73;;
22064;SDS011;11197;53.110;8.468;2023-03-03T03:05:18;56.97;;;25.75;;
22064;SDS011;11197;53.110;8.468;2023-03-03T03:07:44;57.08;;;25.80;;
22064;SDS011;11197;53.110;8.468;2023-03-03T03:10:13;58.70;;;27.55;;
22064;SDS011;11197;53.110;8.468;2023-03-03T03:12:40;60.58;;;26.77;;
22064;SDS011;11197;53.110;8.468;2023-03-03T03:15:07;55.95;;;25.60;;
22064;SDS011;11197;53.110;8.468;2023-03-03T03:17:36;54.50;;;25.67;;
22064;SDS011;11197;53.110;8.468;2023-03-03T03:20:03;58.70;;;26.30;;
22064;SDS011;11197;53.110;8.468;2023-03-03T03:22:29;54.08;;;23.33;;
22064;SDS011;11197;53.110;8.468;2023-03-03T03:24:55;48.95;;;22.42;;
22064;SDS011;11197;53.110;8.468;2023-03-03T03:27:21;45.08;;;21.38;;
22064;SDS011;11197;53.110;8.468;2023-03-03T03:32:18;42.23;;;20.50;;
22064;SDS011;11197;53.110;8.468;2023-03-03T03:34:47;44.97;;;21.23;;
22064;SDS011;11197;53.110;8.468;2023-03-03T03:37:14;40.95;;;20.98;;
22064;SDS011;11197;53.110;8.468;2023-03-03T03:39:42;46.72;;;21.90;;
22064;SDS011;11197;53.110;8.468;2023-03-03T03:42:08;49.83;;;22.48;;
22064;SDS011;11197;53.110;8.468;2023-03-03T03:44:34;47.28;;;22.27;;
22064;SDS011;11197;53.110;8.468;2023-03-03T03:47:00;48.13;;;21.85;;
22064;SDS011;11197;53.110;8.468;2023-03-03T03:49:26;50.17;;;22.85;;
22064;SDS011;11197;53.110;8.468;2023-03-03T03:51:55;49.33;;;23.08;;
22064;SDS011;11197;53.110;8.468;2023-03-03T03:54:23;47.97;;;22.75;;
22064;SDS011;11197;53.110;8.468;2023-03-03T03:56:50;52.55;;;24.30;;
22064;SDS011;11197;53.110;8.468;2023-03-03T03:59:16;47.55;;;23.05;;
22064;SDS011;11197;53.110;8.468;2023-03-03T04:01:42;44.58;;;22.15;;
22064;SDS011;11197;53.110;8.468;2023-03-03T04:04:07;43.33;;;21.67;;
22064;SDS011;11197;53.110;8.468;2023-03-03T04:06:33;45.80;;;21.42;;
22064;SDS011;11197;53.110;8.468;2023-03-03T04:09:00;45.58;;;21.35;;
22064;SDS011;11197;53.110;8.468;2023-03-03T04:11:27;45.95;;;21.70;;
22064;SDS011;11197;53.110;8.468;2023-03-03T04:13:53;44.55;;;20.85;;
22064;SDS011;11197;53.110;8.468;2023-03-03T04:16:20;39.53;;;19.73;;
22064;SDS011;11197;53.110;8.468;2023-03-03T04:18:46;39.15;;;20.17;;
22064;SDS011;11197;53.110;8.468;2023-03-03T04:21:13;44.15;;;20.95;;
22064;SDS011;11197;53.110;8.468;2023-03-03T04:23:40;38.88;;;19.23;;
22064;SDS011;11197;53.110;8.468;2023-03-03T04:26:06;39.65;;;19.27;;
22064;SDS011;11197;53.110;8.468;2023-03-03T04:28:33;41.83;;;19.90;;
22064;SDS011;11197;53.110;8.468;2023-03-03T04:30:59;39.97;;;19.33;;
22064;SDS011;11197;53.110;8.468;2023-03-03T04:33:26;39.15;;;18.98;;
22064;SDS011;11197;53.110;8.468;2023-03-03T04:35:52;39.20;;;19.25;;
22064;SDS011;11197;53.110;8.468;2023-03-03T04:38:19;39.17;;;19.55;;
22064;SDS011;11197;53.110;8.468;2023-03-03T04:40:46;40.03;;;19.73;;
22064;SDS011;11197;53.110;8.468;2023-03-03T04:43:15;44.22;;;20.23;;
22064;SDS011;11197;53.110;8.468;2023-03-03T04:45:41;42.75;;;20.23;;
22064;SDS011;11197;53.110;8.468;2023-03-03T04:48:08;36.75;;;18.50;;
22064;SDS011;11197;53.110;8.468;2023-03-03T04:50:35;39.97;;;19.05;;
22064;SDS011;11197;53.110;8.468;2023-03-03T04:53:01;36.97;;;18.45;;
22064;SDS011;11197;53.110;8.468;2023-03-03T04:55:27;40.25;;;20.08;;
22064;SDS011;11197;53.110;8.468;2023-03-03T04:57:53;39.10;;;18.30;;
22064;SDS011;11197;53.110;8.468;2023-03-03T05:00:19;40.03;;;18.48;;
22064;SDS011;11197;53.110;8.468;2023-03-03T05:02:46;39.88;;;18.17;;
22064;SDS011;11197;53.110;8.468;2023-03-03T05:05:13;37.53;;;19.00;;
22064;SDS011;11197;53.110;8.468;2023-03-03T05:07:40;34.53;;;16.60;;
22064;SDS011;11197;53.110;8.468;2023-03-03T05:10:06;35.33;;;17.73;;
22064;SDS011;11197;53.110;8.468;2023-03-03T05:12:32;34.47;;;17.08;;
22064;SDS011;11197;53.110;8.468;2023-03-03T05:14:58;34.92;;;16.73;;
22064;SDS011;11197;53.110;8.468;2023-03-03T05:17:24;32.33;;;16.52;;
22064;SDS011;11197;53.110;8.468;2023-03-03T05:19:50;29.35;;;15.60;;
22064;SDS011;11197;53.110;8.468;2023-03-03T05:22:15;35.92;;;17.08;;
22064;SDS011;11197;53.110;8.468;2023-03-03T05:24:42;31.45;;;16.08;;
22064;SDS011;11197;53.110;8.468;2023-03-03T05:27:08;33.28;;;16.73;;
22064;SDS011;11197;53.110;8.468;2023-03-03T05:29:34;34.15;;;16.98;;
22064;SDS011;11197;53.110;8.468;2023-03-03T05:32:00;35.85;;;17.08;;
22064;SDS011;11197;53.110;8.468;2023-03-03T05:34:26;36.03;;;16.58;;
22064;SDS011;11197;53.110;8.468;2023-03-03T05:36:51;37.78;;;17.63;;
22064;SDS011;11197;53.110;8.468;2023-03-03T05:39:17;39.08;;;16.75;;
22064;SDS011;11197;53.110;8.468;2023-03-03T05:41:43;32.13;;;15.93;;
22064;SDS011;11197;53.110;8.468;2023-03-03T05:44:09;34.58;;;16.33;;
22064;SDS011;11197;53.110;8.468;2023-03-03T05:46:35;31.05;;;15.73;;
22064;SDS011;11197;53.110;8.468;2023-03-03T05:49:01;33.03;;;16.17;;
22064;SDS011;11197;53.110;8.468;2023-03-03T05:51:27;31.58;;;15.63;;
22064;SDS011;11197;53.110;8.468;2023-03-03T05:53:53;31.77;;;16.70;;
22064;SDS011;11197;53.110;8.468;2023-03-03T05:56:19;28.15;;;14.70;;
22064;SDS011;11197;53.110;8.468;2023-03-03T05:58:44;29.98;;;14.93;;
22064;SDS011;11197;53.110;8.468;2023-03-03T06:01:10;35.15;;;16.50;;
22064;SDS011;11197;53.110;8.468;2023-03-03T06:03:36;31.95;;;16.48;;
22064;SDS011;11197;53.110;8.468;2023-03-03T06:06:03;32.85;;;16.65;;
22064;SDS011;11197;53.110;8.468;2023-03-03T06:08:31;36.65;;;16.65;;
22064;SDS011;11197;53.110;8.468;2023-03-03T06:10:57;33.08;;;16.25;;
22064;SDS011;11197;53.110;8.468;2023-03-03T06:13:24;35.55;;;17.42;;
22064;SDS011;11197;53.110;8.468;2023-03-03T06:15:49;39.25;;;18.27;;
22064;SDS011;11197;53.110;8.468;2023-03-03T06:18:15;34.03;;;17.42;;
22064;SDS011;11197;53.110;8.468;2023-03-03T06:20:41;32.08;;;16.50;;
22064;SDS011;11197;53.110;8.468;2023-03-03T06:23:07;32.17;;;17.10;;
22064;SDS011;11197;53.110;8.468;2023-03-03T06:25:32;30.25;;;17.13;;
22064;SDS011;11197;53.110;8.468;2023-03-03T06:28:00;35.65;;;18.73;;
22064;SDS011;11197;53.110;8.468;2023-03-03T06:30:26;37.53;;;20.00;;
22064;SDS011;11197;53.110;8.468;2023-03-03T06:32:52;37.65;;;20.95;;
22064;SDS011;11197;53.110;8.468;2023-03-03T06:35:19;34.53;;;20.75;;
22064;SDS011;11197;53.110;8.468;2023-03-03T06:37:45;37.70;;;21.15;;
22064;SDS011;11197;53.110;8.468;2023-03-03T06:40:11;32.80;;;18.83;;
22064;SDS011;11197;53.110;8.468;2023-03-03T06:42:37;32.03;;;17.20;;
22064;SDS011;11197;53.110;8.468;2023-03-03T06:45:03;30.27;;;16.67;;
22064;SDS011;11197;53.110;8.468;2023-03-03T06:47:29;31.13;;;15.57;;
22064;SDS011;11197;53.110;8.468;2023-03-03T06:49:55;27.83;;;15.18;;
22064;SDS011;11197;53.110;8.468;2023-03-03T06:52:22;26.40;;;14.23;;
22064;SDS011;11197;53.110;8.468;2023-03-03T06:54:52;24.58;;;13.05;;
22064;SDS011;11197;53.110;8.468;2023-03-03T06:59:57;21.20;;;11.85;;
22064;SDS011;11197;53.110;8.468;2023-03-03T07:02:35;33.90;;;15.60;;
22064;SDS011;11197;53.110;8.468;2023-03-03T07:05:01;55.63;;;24.25;;
22064;SDS011;11197;53.110;8.468;2023-03-03T07:07:30;23.08;;;12.18;;
22064;SDS011;11197;53.110;8.468;2023-03-03T07:09:56;20.75;;;11.48;;
22064;SDS011;11197;53.110;8.468;2023-03-03T07:12:27;20.45;;;11.40;;
22064;SDS011;11197;53.110;8.468;2023-03-03T07:17:41;19.15;;;10.98;;
22064;SDS011;11197;53.110;8.468;2023-03-03T07:20:20;20.58;;;11.95;;
22064;SDS011;11197;53.110;8.468;2023-03-03T07:22:48;25.38;;;13.55;;
22064;SDS011;11197;53.110;8.468;2023-03-03T07:25:20;21.48;;;12.82;;
22064;SDS011;11197;53.110;8.468;2023-03-03T07:30:46;20.38;;;10.60;;
22064;SDS011;11197;53.110;8.468;2023-03-03T07:33:18;17.48;;;10.45;;
22064;SDS011;11197;53.110;8.468;2023-03-03T07:35:49;18.98;;;10.95;;
22064;SDS011;11197;53.110;8.468;2023-03-03T07:40:48;20.08;;;10.98;;
22064;SDS011;11197;53.110;8.468;2023-03-03T07:48:50;17.92;;;10.60;;
22064;SDS011;11197;53.110;8.468;2023-03-03T07:51:27;18.83;;;9.98;;
22064;SDS011;11197;53.110;8.468;2023-03-03T08:07:45;18.35;;;12.07;;
22064;SDS011;11197;53.110;8.468;2023-03-03T08:15:51;18.58;;;11.25;;
22064;SDS011;11197;53.110;8.468;2023-03-03T08:18:22;18.48;;;11.68;;
22064;SDS011;11197;53.110;8.468;2023-03-03T08:20:54;20.63;;;11.60;;
22064;SDS011;11197;53.110;8.468;2023-03-03T08:23:22;16.38;;;11.27;;
22064;SDS011;11197;53.110;8.468;2023-03-03T08:25:48;18.02;;;11.13;;
22064;SDS011;11197;53.110;8.468;2023-03-03T08:28:16;18.80;;;11.07;;
22064;SDS011;11197;53.110;8.468;2023-03-03T08:30:43;19.35;;;11.02;;
22064;SDS011;11197;53.110;8.468;2023-03-03T08:33:09;16.42;;;10.32;;
22064;SDS011;11197;53.110;8.468;2023-03-03T08:35:35;17.70;;;10.80;;
22064;SDS011;11197;53.110;8.468;2023-03-03T08:38:01;17.27;;;11.02;;
22064;SDS011;11197;53.110;8.468;2023-03-03T08:40:27;22.42;;;11.15;;
22064;SDS011;11197;53.110;8.468;2023-03-03T08:42:53;16.80;;;10.48;;
22064;SDS011;11197;53.110;8.468;2023-03-03T08:45:19;20.42;;;10.55;;
22064;SDS011;11197;53.110;8.468;2023-03-03T08:47:45;19.48;;;10.30;;
22064;SDS011;11197;53.110;8.468;2023-03-03T08:50:11;16.40;;;10.27;;
22064;SDS011;11197;53.110;8.468;2023-03-03T08:52:38;15.43;;;10.00;;
22064;SDS011;11197;53.110;8.468;2023-03-03T08:55:04;16.88;;;9.63;;
22064;SDS011;11197;53.110;8.468;2023-03-03T08:57:30;18.25;;;10.25;;
22064;SDS011;11197;53.110;8.468;2023-03-03T08:59:56;25.70;;;12.90;;
22064;SDS011;11197;53.110;8.468;2023-03-03T09:02:22;29.92;;;14.48;;
22064;SDS011;11197;53.110;8.468;2023-03-03T09:04:48;27.85;;;14.18;;
22064;SDS011;11197;53.110;8.468;2023-03-03T09:07:14;24.42;;;13.20;;
22064;SDS011;11197;53.110;8.468;2023-03-03T09:09:39;28.42;;;13.32;;
22064;SDS011;11197;53.110;8.468;2023-03-03T09:12:12;21.45;;;11.82;;
22064;SDS011;11197;53.110;8.468;2023-03-03T09:15:01;22.48;;;12.07;;
22064;SDS011;11197;53.110;8.468;2023-03-03T09:17:44;25.50;;;12.45;;
22064;SDS011;11197;53.110;8.468;2023-03-03T09:29:15;21.45;;;10.23;;
22064;SDS011;11197;53.110;8.468;2023-03-03T09:31:53;19.70;;;10.63;;
22064;SDS011;11197;53.110;8.468;2023-03-03T09:34:21;21.88;;;10.95;;
22064;SDS011;11197;53.110;8.468;2023-03-03T09:39:53;20.58;;;9.52;;
22064;SDS011;11197;53.110;8.468;2023-03-03T09:56:46;28.92;;;15.70;;
22064;SDS011;11197;53.110;8.468;2023-03-03T10:07:43;18.73;;;9.98;;
22064;SDS011;11197;53.110;8.468;2023-03-03T10:21:11;11.57;;;4.88;;
22064;SDS011;11197;53.110;8.468;2023-03-03T10:23:51;11.23;;;4.55;;
22064;SDS011;11197;53.110;8.468;2023-03-03T10:29:09;12.07;;;5.97;;
22064;SDS011;11197;53.110;8.468;2023-03-03T10:39:47;10.65;;;5.30;;
22064;SDS011;11197;53.110;8.468;2023-03-03T10:53:20;11.35;;;5.43;;
22064;SDS011;11197;53.110;8.468;2023-03-03T11:11:39;12.68;;;5.78;;
22064;SDS011;11197;53.110;8.468;2023-03-03T11:14:18;9.20;;;5.22;;
22064;SDS011;11197;53.110;8.468;2023-03-03T11:19:58;11.60;;;5.80;;
22064;SDS011;11197;53.110;8.468;2023-03-03T11:22:45;11.55;;;6.53;;
22064;SDS011;11197;53.110;8.468;2023-03-03T11:33:41;9.90;;;5.05;;
22064;SDS011;11197;53.110;8.468;2023-03-03T11:36:15;8.43;;;3.50;;
22064;SDS011;11197;53.110;8.468;2023-03-03T11:44:07;9.88;;;7.15;;
22064;SDS011;11197;53.110;8.468;2023-03-03T11:46:47;11.52;;;5.80;;
22064;SDS011;11197;53.110;8.468;2023-03-03T11:49:27;9.35;;;4.75;;
22064;SDS011;11197;53.110;8.468;2023-03-03T11:57:28;6.82;;;3.55;;
22064;SDS011;11197;53.110;8.468;2023-03-03T12:02:54;8.20;;;3.90;;
22064;SDS011;11197;53.110;8.468;2023-03-03T12:14:06;10.48;;;4.28;;
22064;SDS011;11197;53.110;8.468;2023-03-03T12:19:24;7.90;;;2.80;;
22064;SDS011;11197;53.110;8.468;2023-03-03T12:30:40;3.83;;;1.00;;
22064;SDS011;11197;53.110;8.468;2023-03-03T12:49:08;14.00;;;2.13;;
22064;SDS011;11197;53.110;8.468;2023-03-03T13:00:12;8.85;;;2.13;;
22064;SDS011;11197;53.110;8.468;2023-03-03T13:05:50;5.07;;;1.60;;
22064;SDS011;11197;53.110;8.468;2023-03-03T13:17:08;5.85;;;1.60;;
22064;SDS011;11197;53.110;8.468;2023-03-03T13:19:45;5.70;;;1.48;;
22064;SDS011;11197;53.110;8.468;2023-03-03T13:22:43;6.00;;;1.40;;
22064;SDS011;11197;53.110;8.468;2023-03-03T13:25:23;6.40;;;1.52;;
22064;SDS011;11197;53.110;8.468;2023-03-03T13:31:22;3.92;;;1.83;;
22064;SDS011;11197;53.110;8.468;2023-03-03T13:33:55;9.77;;;3.55;;
22064;SDS011;11197;53.110;8.468;2023-03-03T13:36:47;8.77;;;2.50;;
22064;SDS011;11197;53.110;8.468;2023-03-03T13:44:51;11.93;;;3.33;;
22064;SDS011;11197;53.110;8.468;2023-03-03T13:47:21;5.25;;;2.70;;
22064;SDS011;11197;53.110;8.468;2023-03-03T13:55:28;5.30;;;2.30;;
22064;SDS011;11197;53.110;8.468;2023-03-03T14:00:56;6.13;;;2.45;;
22064;SDS011;11197;53.110;8.468;2023-03-03T14:06:14;4.20;;;2.40;;
22064;SDS011;11197;53.110;8.468;2023-03-03T14:11:29;5.15;;;2.35;;
22064;SDS011;11197;53.110;8.468;2023-03-03T14:25:11;6.00;;;3.83;;
22064;SDS011;11197;53.110;8.468;2023-03-03T14:35:33;7.82;;;3.30;;
22064;SDS011;11197;53.110;8.468;2023-03-03T14:38:14;11.60;;;4.72;;
22064;SDS011;11197;53.110;8.468;2023-03-03T14:40:43;8.82;;;4.10;;
22064;SDS011;11197;53.110;8.468;2023-03-03T14:49:05;10.43;;;3.63;;
22064;SDS011;11197;53.110;8.468;2023-03-03T14:51:50;8.23;;;3.75;;
22064;SDS011;11197;53.110;8.468;2023-03-03T14:54:21;7.32;;;4.05;;
22064;SDS011;11197;53.110;8.468;2023-03-03T14:57:11;8.50;;;4.68;;
22064;SDS011;11197;53.110;8.468;2023-03-03T14:59:39;9.50;;;5.30;;
22064;SDS011;11197;53.110;8.468;2023-03-03T15:04:50;9.75;;;3.80;;
22064;SDS011;11197;53.110;8.468;2023-03-03T15:07:44;8.63;;;4.30;;
22064;SDS011;11197;53.110;8.468;2023-03-03T15:10:14;7.93;;;3.85;;
22064;SDS011;11197;53.110;8.468;2023-03-03T15:13:07;8.35;;;4.05;;
22064;SDS011;11197;53.110;8.468;2023-03-03T15:18:28;11.00;;;5.13;;
22064;SDS011;11197;53.110;8.468;2023-03-03T15:30:01;6.88;;;3.90;;
22064;SDS011;11197;53.110;8.468;2023-03-03T15:32:28;11.32;;;4.30;;
22064;SDS011;11197;53.110;8.468;2023-03-03T15:48:08;5.20;;;2.22;;
22064;SDS011;11197;53.110;8.468;2023-03-03T15:53:41;6.63;;;2.53;;
22064;SDS011;11197;53.110;8.468;2023-03-03T16:04:12;11.13;;;2.20;;
22064;SDS011;11197;53.110;8.468;2023-03-03T16:09:41;9.63;;;2.00;;
22064;SDS011;11197;53.110;8.468;2023-03-03T16:12:54;8.57;;;1.70;;
22064;SDS011;11197;53.110;8.468;2023-03-03T16:17:58;11.52;;;2.20;;
22064;SDS011;11197;53.110;8.468;2023-03-03T16:20:44;9.40;;;2.53;;
22064;SDS011;11197;53.110;8.468;2023-03-03T16:29:13;11.15;;;3.45;;
22064;SDS011;11197;53.110;8.468;2023-03-03T16:31:55;15.52;;;5.18;;
22064;SDS011;11197;53.110;8.468;2023-03-03T16:37:30;8.18;;;3.15;;
22064;SDS011;11197;53.110;8.468;2023-03-03T16:40:43;7.80;;;2.60;;
22064;SDS011;11197;53.110;8.468;2023-03-03T16:42:56;8.40;;;3.10;;
22064;SDS011;11197;53.110;8.468;2023-03-03T16:45:34;10.48;;;2.70;;
22064;SDS011;11197;53.110;8.468;2023-03-03T16:56:22;8.52;;;2.35;;
22064;SDS011;11197;53.110;8.468;2023-03-03T17:11:16;16.00;;;5.10;;
22064;SDS011;11197;53.110;8.468;2023-03-03T17:18:45;14.05;;;2.75;;
22064;SDS011;11197;53.110;8.468;2023-03-03T17:24:23;13.55;;;3.95;;
22064;SDS011;11197;53.110;8.468;2023-03-03T17:38:09;16.23;;;2.72;;
22064;SDS011;11197;53.110;8.468;2023-03-03T17:46:38;22.70;;;4.10;;
22064;SDS011;11197;53.110;8.468;2023-03-03T18:00:36;16.63;;;2.88;;
22064;SDS011;11197;53.110;8.468;2023-03-03T18:03:17;17.73;;;2.80;;
22064;SDS011;11197;53.110;8.468;2023-03-03T18:25:55;20.50;;;3.70;;
22064;SDS011;11197;53.110;8.468;2023-03-03T18:28:23;19.70;;;3.15;;
22064;SDS011;11197;53.110;8.468;2023-03-03T18:31:24;21.48;;;3.42;;
22064;SDS011;11197;53.110;8.468;2023-03-03T18:38:57;20.80;;;4.00;;
22064;SDS011;11197;53.110;8.468;2023-03-03T18:41:28;19.80;;;3.83;;
22064;SDS011;11197;53.110;8.468;2023-03-03T18:43:56;18.67;;;3.60;;
22064;SDS011;11197;53.110;8.468;2023-03-03T18:48:52;12.23;;;3.00;;
22064;SDS011;11197;53.110;8.468;2023-03-03T19:02:12;17.02;;;3.08;;
22064;SDS011;11197;53.110;8.468;2023-03-03T19:04:50;22.33;;;3.95;;
22064;SDS011;11197;53.110;8.468;2023-03-03T19:07:29;24.63;;;3.63;;
22064;SDS011;11197;53.110;8.468;2023-03-03T19:18:17;22.38;;;3.45;;
22064;SDS011;11197;53.110;8.468;2023-03-03T19:29:13;22.17;;;3.80;;
22064;SDS011;11197;53.110;8.468;2023-03-03T19:55:52;23.60;;;3.80;;
22064;SDS011;11197;53.110;8.468;2023-03-03T20:07:03;20.90;;;3.17;;
22064;SDS011;11197;53.110;8.468;2023-03-03T20:18:28;19.77;;;3.17;;
22064;SDS011;11197;53.110;8.468;2023-03-03T20:23:54;20.27;;;3.30;;
22064;SDS011;11197;53.110;8.468;2023-03-03T20:33:03;19.98;;;3.30;;
22064;SDS011;11197;53.110;8.468;2023-03-03T20:47:36;22.15;;;3.47;;
22064;SDS011;11197;53.110;8.468;2023-03-03T21:04:24;22.83;;;3.72;;
22064;SDS011;11197;53.110;8.468;2023-03-03T21:06:55;27.00;;;3.67;;
22064;SDS011;11197;53.110;8.468;2023-03-03T21:09:30;23.20;;;3.30;;
22064;SDS011;11197;53.110;8.468;2023-03-03T21:12:09;23.58;;;3.53;;
22064;SDS011;11197;53.110;8.468;2023-03-03T21:15:01;24.48;;;3.95;;
22064;SDS011;11197;53.110;8.468;2023-03-03T21:17:31;24.55;;;3.97;;
22064;SDS011;11197;53.110;8.468;2023-03-03T21:22:50;22.73;;;3.28;;
22064;SDS011;11197;53.110;8.468;2023-03-03T21:31:01;18.70;;;3.75;;
22064;SDS011;11197;53.110;8.468;2023-03-03T21:39:04;23.25;;;3.75;;
22064;SDS011;11197;53.110;8.468;2023-03-03T21:47:11;21.63;;;4.10;;
22064;SDS011;11197;53.110;8.468;2023-03-03T21:52:11;26.20;;;4.18;;
22064;SDS011;11197;53.110;8.468;2023-03-03T21:54:40;18.58;;;3.17;;
22064;SDS011;11197;53.110;8.468;2023-03-03T21:57:07;20.95;;;3.70;;
22064;SDS011;11197;53.110;8.468;2023-03-03T21:59:33;23.30;;;3.65;;
22064;SDS011;11197;53.110;8.468;2023-03-03T22:01:59;21.13;;;3.25;;
22064;SDS011;11197;53.110;8.468;2023-03-03T22:04:25;19.77;;;3.47;;
22064;SDS011;11197;53.110;8.468;2023-03-03T22:06:51;17.15;;;3.53;;
22064;SDS011;11197;53.110;8.468;2023-03-03T22:09:17;18.80;;;2.92;;
22064;SDS011;11197;53.110;8.468;2023-03-03T22:11:43;23.85;;;3.00;;
22064;SDS011;11197;53.110;8.468;2023-03-03T22:14:09;23.33;;;2.97;;
22064;SDS011;11197;53.110;8.468;2023-03-03T22:16:35;25.35;;;3.50;;
22064;SDS011;11197;53.110;8.468;2023-03-03T22:19:01;20.35;;;2.63;;
22064;SDS011;11197;53.110;8.468;2023-03-03T22:21:28;20.17;;;2.92;;
22064;SDS011;11197;53.110;8.468;2023-03-03T22:23:54;15.90;;;3.22;;
22064;SDS011;11197;53.110;8.468;2023-03-03T22:26:20;19.63;;;3.10;;
22064;SDS011;11197;53.110;8.468;2023-03-03T22:28:46;16.63;;;2.38;;
22064;SDS011;11197;53.110;8.468;2023-03-03T22:31:13;18.00;;;3.03;;
22064;SDS011;11197;53.110;8.468;2023-03-03T22:33:39;19.10;;;3.20;;
22064;SDS011;11197;53.110;8.468;2023-03-03T22:36:06;22.73;;;2.97;;
22064;SDS011;11197;53.110;8.468;2023-03-03T22:38:33;15.70;;;2.78;;
22064;SDS011;11197;53.110;8.468;2023-03-03T22:40:59;19.50;;;2.70;;
22064;SDS011;11197;53.110;8.468;2023-03-03T22:43:26;17.20;;;2.75;;
22064;SDS011;11197;53.110;8.468;2023-03-03T22:45:57;21.73;;;3.08;;
22064;SDS011;11197;53.110;8.468;2023-03-03T22:48:23;14.50;;;2.45;;
22064;SDS011;11197;53.110;8.468;2023-03-03T22:50:50;18.02;;;2.60;;
22064;SDS011;11197;53.110;8.468;2023-03-03T22:53:17;18.40;;;2.63;;
22064;SDS011;11197;53.110;8.468;2023-03-03T22:55:43;20.67;;;2.38;;
22064;SDS011;11197;53.110;8.468;2023-03-03T22:58:10;16.88;;;2.25;;
22064;SDS011;11197;53.110;8.468;2023-03-03T23:00:36;17.63;;;2.85;;
22064;SDS011;11197;53.110;8.468;2023-03-03T23:03:04;24.90;;;2.88;;
22064;SDS011;11197;53.110;8.468;2023-03-03T23:05:30;13.35;;;2.30;;
22064;SDS011;11197;53.110;8.468;2023-03-03T23:07:56;24.65;;;2.75;;
22064;SDS011;11197;53.110;8.468;2023-03-03T23:10:22;20.88;;;2.50;;
22064;SDS011;11197;53.110;8.468;2023-03-03T23:12:48;21.48;;;2.67;;
22064;SDS011;11197;53.110;8.468;2023-03-03T23:15:13;17.55;;;2.60;;
22064;SDS011;11197;53.110;8.468;2023-03-03T23:17:40;18.67;;;2.40;;
22064;SDS011;11197;53.110;8.468;2023-03-03T23:20:08;13.35;;;2.05;;
22064;SDS011;11197;53.110;8.468;2023-03-03T23:25:04;21.95;;;2.47;;
22064;SDS011;11197;53.110;8.468;2023-03-03T23:27:30;15.73;;;2.40;;
22064;SDS011;11197;53.110;8.468;2023-03-03T23:29:56;14.48;;;2.25;;
22064;SDS011;11197;53.110;8.468;2023-03-03T23:32:21;18.13;;;2.83;;
22064;SDS011;11197;53.110;8.468;2023-03-03T23:34:54;21.75;;;2.33;;
22064;SDS011;11197;53.110;8.468;2023-03-03T23:37:20;15.10;;;2.35;;
22064;SDS011;11197;53.110;8.468;2023-03-03T23:39:46;13.00;;;2.25;;
22064;SDS011;11197;53.110;8.468;2023-03-03T23:42:16;18.00;;;2.30;;
22064;SDS011;11197;53.110;8.468;2023-03-03T23:44:42;21.15;;;2.47;;
22064;SDS011;11197;53.110;8.468;2023-03-03T23:47:08;13.70;;;2.00;;
22064;SDS011;11197;53.110;8.468;2023-03-03T23:49:34;16.27;;;2.17;;